sensor_id;sensor_type;location;lat;lon;timestamp;P1;P2;P0
67376;PMS7003;54261;46.086;6.588;2023-11-19T00:01:03;0.00;0.00;0.00
67376;PMS7003;54261;46.086;6.588;2023-11-19T00:06:07;0.00;0.00;0.00
67376;PMS7003;54261;46.086;6.588;2023-11-19T00:11:11;0.00;0.00;0.00
67376;PMS7003;54261;46.086;6.588;2023-11-19T00:16:16;0.00;0.00;0.00
67376;PMS7003;54261;46.086;6.588;2023-11-19T00:21:19;0.00;0.00;0.00
67376;PMS7003;54261;46.086;6.588;2023-11-19T00:26:20;0.00;0.00;0.00
67376;PMS7003;54261;46.086;6.588;2023-11-19T00:31:26;0.00;0.00;0.00
67376;PMS7003;54261;46.086;6.588;2023-11-19T00:36:31;0.00;0.00;0.00
67376;PMS7003;54261;46.086;6.588;2023-11-19T00:41:33;2.00;2.00;2.00
67376;PMS7003;54261;46.086;6.588;2023-11-19T00:46:35;0.00;0.00;0.00
67376;PMS7003;54261;46.086;6.588;2023-11-19T00:51:37;3.00;3.00;2.00
67376;PMS7003;54261;46.086;6.588;2023-11-19T00:56:40;5.33;4.00;3.00
67376;PMS7003;54261;46.086;6.588;2023-11-19T01:01:42;7.75;7.25;4.75
67376;PMS7003;54261;46.086;6.588;2023-11-19T01:06:43;5.00;3.75;3.00
67376;PMS7003;54261;46.086;6.588;2023-11-19T01:11:48;2.33;2.33;2.00
67376;PMS7003;54261;46.086;6.588;2023-11-19T01:16:50;3.67;2.00;1.00
67376;PMS7003;54261;46.086;6.588;2023-11-19T01:21:52;1.00;1.00;1.00
67376;PMS7003;54261;46.086;6.588;2023-11-19T01:26:54;0.00;0.00;0.00
67376;PMS7003;54261;46.086;6.588;2023-11-19T01:31:56;0.00;0.00;0.00
67376;PMS7003;54261;46.086;6.588;2023-11-19T01:36:57;0.67;0.67;0.00
67376;PMS7003;54261;46.086;6.588;2023-11-19T01:41:59;0.00;0.00;0.00
67376;PMS7003;54261;46.086;6.588;2023-11-19T01:47:01;0.00;0.00;0.00
67376;PMS7003;54261;46.086;6.588;2023-11-19T01:52:04;0.00;0.00;0.00
67376;PMS7003;54261;46.086;6.588;2023-11-19T01:57:06;0.00;0.00;0.00
67376;PMS7003;54261;46.086;6.588;2023-11-19T02:02:08;0.00;0.00;0.00
67376;PMS7003;54261;46.086;6.588;2023-11-19T02:07:10;0.00;0.00;0.00
67376;PMS7003;54261;46.086;6.588;2023-11-19T02:12:13;0.00;0.00;0.00
67376;PMS7003;54261;46.086;6.588;2023-11-19T02:17:24;0.00;0.00;0.00
67376;PMS7003;54261;46.086;6.588;2023-11-19T02:22:30;0.00;0.00;0.00
67376;PMS7003;54261;46.086;6.588;2023-11-19T02:32:41;0.00;0.00;0.00
67376;PMS7003;54261;46.086;6.588;2023-11-19T02:37:44;0.00;0.00;0.00
67376;PMS7003;54261;46.086;6.588;2023-11-19T02:42:46;0.00;0.00;0.00
67376;PMS7003;54261;46.086;6.588;2023-11-19T02:47:48;0.00;0.00;0.00
67376;PMS7003;54261;46.086;6.588;2023-11-19T02:52:51;0.00;0.00;0.00
67376;PMS7003;54261;46.086;6.588;2023-11-19T02:57:55;0.00;0.00;0.00
67376;PMS7003;54261;46.086;6.588;2023-11-19T03:02:58;0.00;0.00;0.00
67376;PMS7003;54261;46.086;6.588;2023-11-19T03:08:01;0.00;0.00;0.00
67376;PMS7003;54261;46.086;6.588;2023-11-19T03:13:03;0.00;0.00;0.00
67376;PMS7003;54261;46.086;6.588;2023-11-19T03:18:05;0.00;0.00;0.00
67376;PMS7003;54261;46.086;6.588;2023-11-19T03:23:06;0.00;0.00;0.00
67376;PMS7003;54261;46.086;6.588;2023-11-19T03:28:08;0.00;0.00;0.00
67376;PMS7003;54261;46.086;6.588;2023-11-19T03:33:10;0.00;0.00;0.00
67376;PMS7003;54261;46.086;6.588;2023-11-19T03:38:13;0.00;0.00;0.00
67376;PMS7003;54261;46.086;6.588;2023-11-19T03:43:16;0.00;0.00;0.00
67376;PMS7003;54261;46.086;6.588;2023-11-19T03:48:18;0.00;0.00;0.00
67376;PMS7003;54261;46.086;6.588;2023-11-19T03:53:20;0.00;0.00;0.00
67376;PMS7003;54261;46.086;6.588;2023-11-19T03:58:22;0.00;0.00;0.00
67376;PMS7003;54261;46.086;6.588;2023-11-19T04:03:24;0.00;0.00;0.00
67376;PMS7003;54261;46.086;6.588;2023-11-19T04:08:26;0.00;0.00;0.00
67376;PMS7003;54261;46.086;6.588;2023-11-19T04:13:28;1.00;0.00;0.00
67376;PMS7003;54261;46.086;6.588;2023-11-19T04:18:30;0.00;0.00;0.00
67376;PMS7003;54261;46.086;6.588;2023-11-19T04:23:33;0.00;0.00;0.00
67376;PMS7003;54261;46.086;6.588;2023-11-19T04:28:35;0.00;0.00;0.00
67376;PMS7003;54261;46.086;6.588;2023-11-19T04:33:37;0.00;0.00;0.00
67376;PMS7003;54261;46.086;6.588;2023-11-19T04:38:39;0.00;0.00;0.00
67376;PMS7003;54261;46.086;6.588;2023-11-19T04:43:41;0.00;0.00;0.00
67376;PMS7003;54261;46.086;6.588;2023-11-19T04:48:43;0.00;0.00;0.00
67376;PMS7003;54261;46.086;6.588;2023-11-19T04:53:44;1.00;1.00;0.33
67376;PMS7003;54261;46.086;6.588;2023-11-19T04:58:46;0.00;0.00;0.00
67376;PMS7003;54261;46.086;6.588;2023-11-19T05:03:48;0.00;0.00;0.00
67376;PMS7003;54261;46.086;6.588;2023-11-19T05:08:50;0.33;0.33;0.33
67376;PMS7003;54261;46.086;6.588;2023-11-19T05:13:52;1.00;0.00;0.00
67376;PMS7003;54261;46.086;6.588;2023-11-19T05:18:54;0.00;0.00;0.00
67376;PMS7003;54261;46.086;6.588;2023-11-19T05:23:56;0.00;0.00;0.00
67376;PMS7003;54261;46.086;6.588;2023-11-19T05:28:58;0.00;0.00;0.00
67376;PMS7003;54261;46.086;6.588;2023-11-19T05:34:00;0.00;0.00;0.00
67376;PMS7003;54261;46.086;6.588;2023-11-19T05:39:02;0.00;0.00;0.00
67376;PMS7003;54261;46.086;6.588;2023-11-19T05:44:04;0.00;0.00;0.00
67376;PMS7003;54261;46.086;6.588;2023-11-19T05:49:06;0.00;0.00;0.00
67376;PMS7003;54261;46.086;6.588;2023-11-19T05:54:08;0.00;0.00;0.00
67376;PMS7003;54261;46.086;6.588;2023-11-19T05:59:11;0.00;0.00;0.00
67376;PMS7003;54261;46.086;6.588;2023-11-19T06:04:17;0.00;0.00;0.00
67376;PMS7003;54261;46.086;6.588;2023-11-19T06:09:19;0.00;0.00;0.00
67376;PMS7003;54261;46.086;6.588;2023-11-19T06:14:21;0.00;0.00;0.00
67376;PMS7003;54261;46.086;6.588;2023-11-19T06:19:22;0.00;0.00;0.00
67376;PMS7003;54261;46.086;6.588;2023-11-19T06:24:30;0.00;0.00;0.00
67376;PMS7003;54261;46.086;6.588;2023-11-19T06:29:32;0.00;0.00;0.00
67376;PMS7003;54261;46.086;6.588;2023-11-19T06:34:34;0.00;0.00;0.00
67376;PMS7003;54261;46.086;6.588;2023-11-19T06:39:36;0.00;0.00;0.00
67376;PMS7003;54261;46.086;6.588;2023-11-19T06:44:38;0.67;0.00;0.00
67376;PMS7003;54261;46.086;6.588;2023-11-19T06:49:43;0.00;0.00;0.00
67376;PMS7003;54261;46.086;6.588;2023-11-19T06:54:45;0.00;0.00;0.00
67376;PMS7003;54261;46.086;6.588;2023-11-19T06:59:47;0.00;0.00;0.00
67376;PMS7003;54261;46.086;6.588;2023-11-19T07:04:49;0.00;0.00;0.00
67376;PMS7003;54261;46.086;6.588;2023-11-19T07:09:51;0.00;0.00;0.00
67376;PMS7003;54261;46.086;6.588;2023-11-19T07:14:52;0.00;0.00;0.00
67376;PMS7003;54261;46.086;6.588;2023-11-19T07:19:56;0.00;0.00;0.00
67376;PMS7003;54261;46.086;6.588;2023-11-19T07:25:01;0.67;0.00;0.00
67376;PMS7003;54261;46.086;6.588;2023-11-19T07:30:02;0.33;0.33;0.00
67376;PMS7003;54261;46.086;6.588;2023-11-19T07:35:05;0.00;0.00;0.00
67376;PMS7003;54261;46.086;6.588;2023-11-19T07:40:07;0.00;0.00;0.00
67376;PMS7003;54261;46.086;6.588;2023-11-19T07:45:09;0.00;0.00;0.00
67376;PMS7003;54261;46.086;6.588;2023-11-19T07:50:11;1.00;1.00;1.00
67376;PMS7003;54261;46.086;6.588;2023-11-19T07:55:15;2.00;1.00;0.00
67376;PMS7003;54261;46.086;6.588;2023-11-19T08:00:17;0.00;0.00;0.00
67376;PMS7003;54261;46.086;6.588;2023-11-19T08:05:21;7.00;6.00;5.00
67376;PMS7003;54261;46.086;6.588;2023-11-19T08:10:25;3.33;3.33;2.33
67376;PMS7003;54261;46.086;6.588;2023-11-19T08:15:26;1.00;1.00;1.00
67376;PMS7003;54261;46.086;6.588;2023-11-19T08:20:31;3.67;3.67;3.00
67376;PMS7003;54261;46.086;6.588;2023-11-19T08:25:33;1.00;1.00;0.67
67376;PMS7003;54261;46.086;6.588;2023-11-19T08:30:35;2.00;2.00;1.00
67376;PMS7003;54261;46.086;6.588;2023-11-19T08:35:37;2.00;2.00;1.00
67376;PMS7003;54261;46.086;6.588;2023-11-19T08:40:39;1.00;1.00;1.00
67376;PMS7003;54261;46.086;6.588;2023-11-19T08:45:41;2.00;2.00;1.00
67376;PMS7003;54261;46.086;6.588;2023-11-19T08:50:43;4.00;4.00;3.00
67376;PMS7003;54261;46.086;6.588;2023-11-19T08:55:45;2.00;0.67;0.67
67376;PMS7003;54261;46.086;6.588;2023-11-19T09:00:47;1.00;1.00;1.00
67376;PMS7003;54261;46.086;6.588;2023-11-19T09:05:49;2.00;2.00;1.33
67376;PMS7003;54261;46.086;6.588;2023-11-19T09:10:51;2.00;2.00;1.00
67376;PMS7003;54261;46.086;6.588;2023-11-19T09:15:52;1.00;1.00;1.00
67376;PMS7003;54261;46.086;6.588;2023-11-19T09:20:54;2.00;2.00;2.00
67376;PMS7003;54261;46.086;6.588;2023-11-19T09:25:56;3.33;2.33;2.00
67376;PMS7003;54261;46.086;6.588;2023-11-19T09:30:58;2.00;2.00;1.00
67376;PMS7003;54261;46.086;6.588;2023-11-19T09:36:00;2.00;2.00;1.67
67376;PMS7003;54261;46.086;6.588;2023-11-19T09:41:02;1.00;1.00;1.00
67376;PMS7003;54261;46.086;6.588;2023-11-19T09:46:12;1.00;1.00;1.00
67376;PMS7003;54261;46.086;6.588;2023-11-19T09:51:17;1.67;1.67;1.33
67376;PMS7003;54261;46.086;6.588;2023-11-19T09:56:18;2.67;2.67;1.00
67376;PMS7003;54261;46.086;6.588;2023-11-19T10:01:21;1.67;1.67;1.33
67376;PMS7003;54261;46.086;6.588;2023-11-19T10:06:29;1.00;1.00;1.00
67376;PMS7003;54261;46.086;6.588;2023-11-19T10:11:31;1.00;1.00;0.00
67376;PMS7003;54261;46.086;6.588;2023-11-19T10:16:34;1.00;1.00;1.00
67376;PMS7003;54261;46.086;6.588;2023-11-19T10:21:36;0.00;0.00;0.00
67376;PMS7003;54261;46.086;6.588;2023-11-19T10:26:38;0.33;0.33;0.33
67376;PMS7003;54261;46.086;6.588;2023-11-19T10:31:40;2.33;1.67;1.33
67376;PMS7003;54261;46.086;6.588;2023-11-19T10:36:41;3.00;3.00;3.00
67376;PMS7003;54261;46.086;6.588;2023-11-19T10:41:44;2.00;1.00;1.00
67376;PMS7003;54261;46.086;6.588;2023-11-19T10:46:46;1.00;1.00;1.00
67376;PMS7003;54261;46.086;6.588;2023-11-19T10:51:50;2.00;2.00;2.00
67376;PMS7003;54261;46.086;6.588;2023-11-19T10:56:55;1.00;1.00;1.00
67376;PMS7003;54261;46.086;6.588;2023-11-19T11:02:03;0.00;0.00;0.00
67376;PMS7003;54261;46.086;6.588;2023-11-19T11:07:08;3.00;2.00;1.67
67376;PMS7003;54261;46.086;6.588;2023-11-19T11:12:11;2.00;2.00;1.00
67376;PMS7003;54261;46.086;6.588;2023-11-19T11:17:14;1.00;0.00;0.00
67376;PMS7003;54261;46.086;6.588;2023-11-19T11:22:19;1.00;1.00;1.00
67376;PMS7003;54261;46.086;6.588;2023-11-19T11:33:21;31.00;29.75;23.50
67376;PMS7003;54261;46.086;6.588;2023-11-19T11:38:36;3.00;2.67;2.00
67376;PMS7003;54261;46.086;6.588;2023-11-19T11:43:44;2.00;2.00;2.00
67376;PMS7003;54261;46.086;6.588;2023-11-19T11:48:47;2.33;2.33;1.00
67376;PMS7003;54261;46.086;6.588;2023-11-19T11:53:51;1.00;1.00;1.00
67376;PMS7003;54261;46.086;6.588;2023-11-19T11:58:53;1.00;1.00;1.00
67376;PMS7003;54261;46.086;6.588;2023-11-19T12:03:56;2.00;2.00;2.00
67376;PMS7003;54261;46.086;6.588;2023-11-19T12:08:59;0.33;0.33;0.00
67376;PMS7003;54261;46.086;6.588;2023-11-19T12:14:01;4.00;4.00;3.00
67376;PMS7003;54261;46.086;6.588;2023-11-19T12:19:04;4.00;4.00;3.00
67376;PMS7003;54261;46.086;6.588;2023-11-19T12:24:07;2.00;2.00;1.67
67376;PMS7003;54261;46.086;6.588;2023-11-19T12:29:10;1.00;1.00;0.00
67376;PMS7003;54261;46.086;6.588;2023-11-19T12:34:12;1.00;1.00;0.33
67376;PMS7003;54261;46.086;6.588;2023-11-19T12:39:15;2.67;2.00;1.00
67376;PMS7003;54261;46.086;6.588;2023-11-19T12:44:16;5.00;4.33;4.00
67376;PMS7003;54261;46.086;6.588;2023-11-19T12:49:18;8.33;8.00;6.00
67376;PMS7003;54261;46.086;6.588;2023-11-19T12:54:31;2.00;2.00;2.00
67376;PMS7003;54261;46.086;6.588;2023-11-19T12:59:34;2.00;1.00;1.00
67376;PMS7003;54261;46.086;6.588;2023-11-19T13:04:36;8.00;5.33;4.00
67376;PMS7003;54261;46.086;6.588;2023-11-19T13:09:38;5.00;5.00;5.00
67376;PMS7003;54261;46.086;6.588;2023-11-19T13:14:40;8.00;8.00;5.67
67376;PMS7003;54261;46.086;6.588;2023-11-19T13:19:46;6.00;5.00;4.33
67376;PMS7003;54261;46.086;6.588;2023-11-19T13:24:48;3.00;2.67;2.67
67376;PMS7003;54261;46.086;6.588;2023-11-19T13:29:50;4.67;4.67;3.67
67376;PMS7003;54261;46.086;6.588;2023-11-19T13:34:52;4.00;3.00;2.00
67376;PMS7003;54261;46.086;6.588;2023-11-19T13:39:54;1.67;1.67;1.00
67376;PMS7003;54261;46.086;6.588;2023-11-19T13:44:56;4.67;4.67;4.00
67376;PMS7003;54261;46.086;6.588;2023-11-19T13:49:58;3.00;3.00;3.00
67376;PMS7003;54261;46.086;6.588;2023-11-19T13:55:00;5.00;4.00;3.67
67376;PMS7003;54261;46.086;6.588;2023-11-19T14:00:02;7.00;7.00;5.00
67376;PMS7003;54261;46.086;6.588;2023-11-19T14:05:12;6.00;6.00;5.00
67376;PMS7003;54261;46.086;6.588;2023-11-19T14:10:15;4.33;4.00;3.00
67376;PMS7003;54261;46.086;6.588;2023-11-19T14:15:17;11.67;9.00;7.00
67376;PMS7003;54261;46.086;6.588;2023-11-19T14:20:19;4.00;4.00;2.67
67376;PMS7003;54261;46.086;6.588;2023-11-19T14:25:22;2.33;2.33;1.33
67376;PMS7003;54261;46.086;6.588;2023-11-19T14:30:25;7.00;6.33;6.00
67376;PMS7003;54261;46.086;6.588;2023-11-19T14:35:26;4.00;4.00;3.00
67376;PMS7003;54261;46.086;6.588;2023-11-19T14:40:28;6.00;5.00;3.00
67376;PMS7003;54261;46.086;6.588;2023-11-19T14:45:33;1.00;1.00;1.00
67376;PMS7003;54261;46.086;6.588;2023-11-19T14:50:45;12.00;11.00;7.00
67376;PMS7003;54261;46.086;6.588;2023-11-19T14:55:47;4.67;4.67;3.33
67376;PMS7003;54261;46.086;6.588;2023-11-19T15:00:49;8.00;8.00;6.33
67376;PMS7003;54261;46.086;6.588;2023-11-19T15:05:51;6.33;6.00;5.00
67376;PMS7003;54261;46.086;6.588;2023-11-19T15:10:53;9.00;6.00;5.00
67376;PMS7003;54261;46.086;6.588;2023-11-19T15:15:55;17.33;15.33;10.67
67376;PMS7003;54261;46.086;6.588;2023-11-19T15:20:57;18.33;18.00;11.67
67376;PMS7003;54261;46.086;6.588;2023-11-19T15:25:59;8.33;8.33;5.00
67376;PMS7003;54261;46.086;6.588;2023-11-19T15:31:01;21.00;21.00;17.50
67376;PMS7003;54261;46.086;6.588;2023-11-19T15:36:05;9.33;9.33;7.67
67376;PMS7003;54261;46.086;6.588;2023-11-19T15:41:09;6.00;6.00;5.00
67376;PMS7003;54261;46.086;6.588;2023-11-19T15:46:14;5.00;5.00;3.33
67376;PMS7003;54261;46.086;6.588;2023-11-19T15:51:18;8.00;7.33;6.00
67376;PMS7003;54261;46.086;6.588;2023-11-19T15:56:19;5.67;5.00;4.00
67376;PMS7003;54261;46.086;6.588;2023-11-19T16:01:21;6.67;6.67;4.00
67376;PMS7003;54261;46.086;6.588;2023-11-19T16:06:23;6.00;6.00;5.00
67376;PMS7003;54261;46.086;6.588;2023-11-19T16:11:25;8.00;7.00;6.00
67376;PMS7003;54261;46.086;6.588;2023-11-19T16:16:27;9.00;7.00;5.33
67376;PMS7003;54261;46.086;6.588;2023-11-19T16:21:30;6.67;6.67;5.67
67376;PMS7003;54261;46.086;6.588;2023-11-19T16:26:31;6.00;6.00;5.67
67376;PMS7003;54261;46.086;6.588;2023-11-19T16:31:34;9.33;9.00;7.00
67376;PMS7003;54261;46.086;6.588;2023-11-19T16:36:36;12.00;11.00;8.33
67376;PMS7003;54261;46.086;6.588;2023-11-19T16:41:38;14.67;14.67;10.00
67376;PMS7003;54261;46.086;6.588;2023-11-19T16:46:44;25.33;23.67;18.00
67376;PMS7003;54261;46.086;6.588;2023-11-19T16:51:46;21.00;21.00;17.00
67376;PMS7003;54261;46.086;6.588;2023-11-19T16:56:48;23.00;18.00;14.33
67376;PMS7003;54261;46.086;6.588;2023-11-19T17:01:50;17.33;17.33;13.00
67376;PMS7003;54261;46.086;6.588;2023-11-19T17:06:52;6.00;6.00;5.00
67376;PMS7003;54261;46.086;6.588;2023-11-19T17:11:54;14.00;12.00;10.00
67376;PMS7003;54261;46.086;6.588;2023-11-19T17:16:57;5.00;5.00;5.00
67376;PMS7003;54261;46.086;6.588;2023-11-19T17:21:59;9.00;9.00;7.33
67376;PMS7003;54261;46.086;6.588;2023-11-19T17:27:01;10.00;10.00;7.33
67376;PMS7003;54261;46.086;6.588;2023-11-19T17:32:03;12.33;11.00;7.67
67376;PMS7003;54261;46.086;6.588;2023-11-19T17:37:05;18.67;16.67;12.67
67376;PMS7003;54261;46.086;6.588;2023-11-19T17:42:06;8.33;8.33;7.00
67376;PMS7003;54261;46.086;6.588;2023-11-19T17:47:09;9.00;9.00;7.33
67376;PMS7003;54261;46.086;6.588;2023-11-19T17:52:11;9.00;9.00;6.00
67376;PMS7003;54261;46.086;6.588;2023-11-19T17:57:14;6.00;6.00;5.00
67376;PMS7003;54261;46.086;6.588;2023-11-19T18:02:16;2.00;2.00;2.00
67376;PMS7003;54261;46.086;6.588;2023-11-19T18:07:20;1.33;0.67;0.33
67376;PMS7003;54261;46.086;6.588;2023-11-19T18:12:22;0.00;0.00;0.00
67376;PMS7003;54261;46.086;6.588;2023-11-19T18:17:23;6.67;6.67;6.00
67376;PMS7003;54261;46.086;6.588;2023-11-19T18:22:25;9.00;8.00;7.00
67376;PMS7003;54261;46.086;6.588;2023-11-19T18:27:27;7.00;7.00;5.33
67376;PMS7003;54261;46.086;6.588;2023-11-19T18:32:29;12.00;10.00;8.00
67376;PMS7003;54261;46.086;6.588;2023-11-19T18:37:32;7.00;7.00;5.00
67376;PMS7003;54261;46.086;6.588;2023-11-19T18:42:35;7.33;7.33;6.33
67376;PMS7003;54261;46.086;6.588;2023-11-19T18:47:37;10.33;10.33;7.00
67376;PMS7003;54261;46.086;6.588;2023-11-19T18:52:40;12.00;12.00;8.33
67376;PMS7003;54261;46.086;6.588;2023-11-19T18:57:42;4.33;4.33;3.33
67376;PMS7003;54261;46.086;6.588;2023-11-19T19:02:44;9.00;6.00;4.00
67376;PMS7003;54261;46.086;6.588;2023-11-19T19:07:52;5.67;5.67;5.00
67376;PMS7003;54261;46.086;6.588;2023-11-19T19:12:58;7.00;7.00;5.00
67376;PMS7003;54261;46.086;6.588;2023-11-19T19:18:00;17.33;14.33;11.00
67376;PMS7003;54261;46.086;6.588;2023-11-19T19:23:01;1.33;1.33;1.00
67376;PMS7003;54261;46.086;6.588;2023-11-19T19:28:03;7.33;7.00;6.00
67376;PMS7003;54261;46.086;6.588;2023-11-19T19:33:13;5.00;4.00;3.00
67376;PMS7003;54261;46.086;6.588;2023-11-19T19:38:16;6.00;6.00;4.00
67376;PMS7003;54261;46.086;6.588;2023-11-19T19:43:17;8.00;6.67;5.67
67376;PMS7003;54261;46.086;6.588;2023-11-19T19:48:19;10.00;9.67;7.33
67376;PMS7003;54261;46.086;6.588;2023-11-19T19:53:21;5.33;5.33;4.00
67376;PMS7003;54261;46.086;6.588;2023-11-19T19:58:23;5.67;5.67;5.00
67376;PMS7003;54261;46.086;6.588;2023-11-19T20:03:25;0.67;0.67;0.00
67376;PMS7003;54261;46.086;6.588;2023-11-19T20:08:27;5.67;5.67;4.00
67376;PMS7003;54261;46.086;6.588;2023-11-19T20:13:29;0.00;0.00;0.00
67376;PMS7003;54261;46.086;6.588;2023-11-19T20:18:34;5.00;4.00;3.33
67376;PMS7003;54261;46.086;6.588;2023-11-19T20:23:37;0.00;0.00;0.00
67376;PMS7003;54261;46.086;6.588;2023-11-19T20:28:38;10.00;7.33;6.00
67376;PMS7003;54261;46.086;6.588;2023-11-19T20:33:40;0.33;0.33;0.00
67376;PMS7003;54261;46.086;6.588;2023-11-19T20:38:42;8.67;7.00;5.00
67376;PMS7003;54261;46.086;6.588;2023-11-19T20:43:44;12.00;10.67;7.00
67376;PMS7003;54261;46.086;6.588;2023-11-19T20:48:46;5.33;4.00;2.00
67376;PMS7003;54261;46.086;6.588;2023-11-19T20:53:48;6.00;6.00;5.00
67376;PMS7003;54261;46.086;6.588;2023-11-19T20:58:50;15.00;13.00;9.50
67376;PMS7003;54261;46.086;6.588;2023-11-19T21:03:52;5.00;5.00;4.67
67376;PMS7003;54261;46.086;6.588;2023-11-19T21:08:54;2.00;2.00;2.00
67376;PMS7003;54261;46.086;6.588;2023-11-19T21:13:55;4.67;4.00;3.00
67376;PMS7003;54261;46.086;6.588;2023-11-19T21:18:57;7.67;6.67;4.67
67376;PMS7003;54261;46.086;6.588;2023-11-19T21:23:59;8.33;6.00;4.33
67376;PMS7003;54261;46.086;6.588;2023-11-19T21:29:03;14.00;11.67;7.67
67376;PMS7003;54261;46.086;6.588;2023-11-19T21:34:05;3.00;3.00;2.00
67376;PMS7003;54261;46.086;6.588;2023-11-19T21:39:07;9.00;6.67;5.67
67376;PMS7003;54261;46.086;6.588;2023-11-19T21:44:10;5.00;4.33;3.67
67376;PMS7003;54261;46.086;6.588;2023-11-19T21:49:12;5.33;3.67;3.00
67376;PMS7003;54261;46.086;6.588;2023-11-19T21:54:14;0.67;0.33;0.00
67376;PMS7003;54261;46.086;6.588;2023-11-19T21:59:16;1.00;1.00;1.00
67376;PMS7003;54261;46.086;6.588;2023-11-19T22:04:18;0.00;0.00;0.00
67376;PMS7003;54261;46.086;6.588;2023-11-19T22:09:19;2.00;2.00;2.00
67376;PMS7003;54261;46.086;6.588;2023-11-19T22:14:22;1.00;1.00;1.00
67376;PMS7003;54261;46.086;6.588;2023-11-19T22:19:24;2.00;0.00;0.00
67376;PMS7003;54261;46.086;6.588;2023-11-19T22:24:26;3.00;3.00;1.00
67376;PMS7003;54261;46.086;6.588;2023-11-19T22:29:27;0.67;0.67;0.33
67376;PMS7003;54261;46.086;6.588;2023-11-19T22:34:29;8.33;7.00;5.67
67376;PMS7003;54261;46.086;6.588;2023-11-19T22:39:31;3.00;2.00;2.00
67376;PMS7003;54261;46.086;6.588;2023-11-19T22:44:33;0.00;0.00;0.00
67376;PMS7003;54261;46.086;6.588;2023-11-19T22:49:35;3.00;3.00;2.33
67376;PMS7003;54261;46.086;6.588;2023-11-19T22:54:36;4.33;4.00;2.67
67376;PMS7003;54261;46.086;6.588;2023-11-19T22:59:38;6.33;4.67;4.00
67376;PMS7003;54261;46.086;6.588;2023-11-19T23:04:40;3.67;2.00;1.00
67376;PMS7003;54261;46.086;6.588;2023-11-19T23:09:42;4.33;3.00;2.00
67376;PMS7003;54261;46.086;6.588;2023-11-19T23:14:46;1.00;1.00;1.00
67376;PMS7003;54261;46.086;6.588;2023-11-19T23:19:48;1.00;1.00;0.00
67376;PMS7003;54261;46.086;6.588;2023-11-19T23:24:55;7.00;6.00;4.00
67376;PMS7003;54261;46.086;6.588;2023-11-19T23:29:57;5.00;5.00;3.00
67376;PMS7003;54261;46.086;6.588;2023-11-19T23:34:59;4.00;3.00;2.00
67376;PMS7003;54261;46.086;6.588;2023-11-19T23:40:01;3.00;3.00;2.00
67376;PMS7003;54261;46.086;6.588;2023-11-19T23:45:06;4.00;2.33;2.00
67376;PMS7003;54261;46.086;6.588;2023-11-19T23:50:08;9.33;7.33;5.67
67376;PMS7003;54261;46.086;6.588;2023-11-19T23:55:11;7.67;6.67;4.00
